Muir Milach — WDH9870 — position and weather

sailwx.info

Track history (hours):
 
Tides and Currents Weather Stations Pressure Air Temp Water Temp Dewpoint Dewpoint Depression Visibility Wind Speed Wind Dir Waves Ship Positions

Muir Milach

Owner: Aleutian Spray Reverse LLC, Seattle, WA. More information available from US FCC via Universal Licensing System and Coast Guard Vessel Documentation Center.

Last reported at 2018-Jan-11 12:19 UTC. Time now 2018-Jan-20 18:29 UTC.
Position N 51°20' W 129°15'.
Warning: this ship's position is 9 days out of date.

Length 28 m; draft 19.3 m.

Type: Fishing. MMSI: 367672390.

Date/timePositionNaut miles runAvg speedWind from/ knotsBaromVisibWave heightAir tempDewpointWater temp
2018-Jan-11 12:19N 51°20' W 129°15'3 9.9
2018-Jan-11 12:00N 51°19' W 129°11'5 9.5
2018-Jan-11 11:30N 51°17' W 129°04'5 9.6
2018-Jan-11 11:01N 51°15' W 128°57'510.2
2018-Jan-11 10:30N 51°14' W 128°49'510.3
2018-Jan-11 10:00N 51°12' W 128°41'510.2
2018-Jan-11 09:30N 51°10' W 128°34'5 9.7
2018-Jan-11 09:00N 51°08' W 128°26'5 9.9
2018-Jan-11 08:30N 51°07' W 128°19'5 9.8
2018-Jan-11 08:00N 51°05' W 128°11'510.2
2018-Jan-11 07:30N 51°03' W 128°04'510.4
2018-Jan-11 07:00N 51°01' W 127°57'510.4
2018-Jan-11 06:30N 50°59' W 127°49'5 9.9
2018-Jan-11 06:00N 50°56' W 127°42'5 9.5
2018-Jan-11 05:30N 50°53' W 127°36'5 9.5
2018-Jan-11 05:00N 50°51' W 127°30'5 9.5
2018-Jan-11 04:30N 50°48' W 127°23'5 9.6
2018-Jan-11 04:00N 50°47' W 127°16'5 9.7
2018-Jan-11 03:30N 50°45' W 127°09'510.0
2018-Jan-11 02:59N 50°43' W 127°02'5 9.7
2018-Jan-11 02:25N 50°41' W 126°54'4 9.2
2018-Jan-11 02:00N 50°38' W 126°49'610.5
2018-Jan-11 01:27N 50°35' W 126°42'5 9.7
2018-Jan-11 00:54N 50°31' W 126°37'3211.2
2018-Jan-10 22:02N 50°23' W 125°48'112.6
2018-Jan-10 21:58N 50°22' W 125°46'611.7
2018-Jan-10 21:24N 50°22' W 125°36'511.6
2018-Jan-10 20:56N 50°20' W 125°28'4 9.7
2018-Jan-10 20:30N 50°17' W 125°24'510.4
2018-Jan-10 20:00N 50°12' W 125°22'5 9.2
2018-Jan-10 19:30N 50°08' W 125°21'3 5.1
2018-Jan-10 19:00N 50°06' W 125°18'2 3.1
2018-Jan-10 18:30N 50°05' W 125°16'2 3.1
2018-Jan-10 18:00N 50°03' W 125°15'2 3.3
2018-Jan-10 17:30N 50°02' W 125°13'1 2.9
2018-Jan-10 17:00N 50°01' W 125°13'2 3.7
2018-Jan-10 16:29N 49°59' W 125°11'5 9.4
2018-Jan-10 16:00N 49°56' W 125°06'510.1
2018-Jan-10 15:30N 49°53' W 124°59'5 9.9
2018-Jan-10 15:00N 49°50' W 124°54'510.2
2018-Jan-10 14:30N 49°46' W 124°48'510.1
2018-Jan-10 14:00N 49°43' W 124°42'5 9.8
2018-Jan-10 13:30N 49°40' W 124°36'5 9.8
2018-Jan-10 12:59N 49°37' W 124°29'5 9.9
2018-Jan-10 12:29N 49°34' W 124°23'13 9.8
2018-Jan-10 11:08N 49°27' W 124°06'1 9.4
2018-Jan-10 10:58N 49°26' W 124°04'5 9.6
2018-Jan-10 10:29N 49°23' W 123°59'5 9.9
2018-Jan-10 09:59N 49°20' W 123°53'5 9.9
2018-Jan-10 09:30N 49°17' W 123°47'5 9.7
2018-Jan-10 08:58N 49°14' W 123°41'510.0
2018-Jan-10 08:30N 49°11' W 123°35'510.0
2018-Jan-10 08:00N 49°08' W 123°29'510.3
2018-Jan-10 07:30N 49°05' W 123°23'5 9.9
2018-Jan-10 07:00N 49°02' W 123°17'510.0
2018-Jan-10 06:30N 48°59' W 123°11'510.3
2018-Jan-10 06:00N 48°55' W 123°05'510.2
2018-Jan-10 05:29N 48°52' W 122°59'510.1
2018-Jan-10 04:59N 48°49' W 122°53'510.1
2018-Jan-10 04:29N 48°46' W 122°47'5 9.7
2018-Jan-10 03:59N 48°44' W 122°40'4 8.3
2018-Jan-10 03:30N 48°42' W 122°35'5 9.3
2018-Jan-10 03:00N 48°45' W 122°31'0 0.6
2018-Jan-10 02:30N 48°45' W 122°30'  
Track history (hours):
 
Tides and Currents Weather Stations Pressure Air Temp Water Temp Dewpoint Dewpoint Depression Visibility Wind Speed Wind Dir Waves Ship Positions

Muir Milach

Owner: Aleutian Spray Reverse LLC, Seattle, WA. More information available from US FCC via Universal Licensing System and Coast Guard Vessel Documentation Center.

Last reported at 2018-Jan-11 12:19 UTC. Time now 2018-Jan-20 18:29 UTC.
Position N 51°20' W 129°15'.
Warning: this ship's position is 9 days out of date.

Length 28 m; draft 19.3 m.

Type: Fishing. MMSI: 367672390.

Date/timePositionNaut miles runAvg speedWind from/ knotsBaromVisibWave heightAir tempDewpointWater temp
2018-Jan-11 12:19N 51°20' W 129°15'3 9.9
2018-Jan-11 12:00N 51°19' W 129°11'5 9.5
2018-Jan-11 11:30N 51°17' W 129°04'5 9.6
2018-Jan-11 11:01N 51°15' W 128°57'510.2
2018-Jan-11 10:30N 51°14' W 128°49'510.3
2018-Jan-11 10:00N 51°12' W 128°41'510.2
2018-Jan-11 09:30N 51°10' W 128°34'5 9.7
2018-Jan-11 09:00N 51°08' W 128°26'5 9.9
2018-Jan-11 08:30N 51°07' W 128°19'5 9.8
2018-Jan-11 08:00N 51°05' W 128°11'510.2
2018-Jan-11 07:30N 51°03' W 128°04'510.4
2018-Jan-11 07:00N 51°01' W 127°57'510.4
2018-Jan-11 06:30N 50°59' W 127°49'5 9.9
2018-Jan-11 06:00N 50°56' W 127°42'5 9.5
2018-Jan-11 05:30N 50°53' W 127°36'5 9.5
2018-Jan-11 05:00N 50°51' W 127°30'5 9.5
2018-Jan-11 04:30N 50°48' W 127°23'5 9.6
2018-Jan-11 04:00N 50°47' W 127°16'5 9.7
2018-Jan-11 03:30N 50°45' W 127°09'510.0
2018-Jan-11 02:59N 50°43' W 127°02'5 9.7
2018-Jan-11 02:25N 50°41' W 126°54'4 9.2
2018-Jan-11 02:00N 50°38' W 126°49'610.5
2018-Jan-11 01:27N 50°35' W 126°42'5 9.7
2018-Jan-11 00:54N 50°31' W 126°37'3211.2
2018-Jan-10 22:02N 50°23' W 125°48'112.6
2018-Jan-10 21:58N 50°22' W 125°46'611.7
2018-Jan-10 21:24N 50°22' W 125°36'511.6
2018-Jan-10 20:56N 50°20' W 125°28'4 9.7
2018-Jan-10 20:30N 50°17' W 125°24'510.4
2018-Jan-10 20:00N 50°12' W 125°22'5 9.2
2018-Jan-10 19:30N 50°08' W 125°21'3 5.1
2018-Jan-10 19:00N 50°06' W 125°18'2 3.1
2018-Jan-10 18:30N 50°05' W 125°16'2 3.1
2018-Jan-10 18:00N 50°03' W 125°15'2 3.3
2018-Jan-10 17:30N 50°02' W 125°13'1 2.9
2018-Jan-10 17:00N 50°01' W 125°13'2 3.7
2018-Jan-10 16:29N 49°59' W 125°11'5 9.4
2018-Jan-10 16:00N 49°56' W 125°06'510.1
2018-Jan-10 15:30N 49°53' W 124°59'5 9.9
2018-Jan-10 15:00N 49°50' W 124°54'510.2
2018-Jan-10 14:30N 49°46' W 124°48'510.1
2018-Jan-10 14:00N 49°43' W 124°42'5 9.8
2018-Jan-10 13:30N 49°40' W 124°36'5 9.8
2018-Jan-10 12:59N 49°37' W 124°29'5 9.9
2018-Jan-10 12:29N 49°34' W 124°23'13 9.8
2018-Jan-10 11:08N 49°27' W 124°06'1 9.4
2018-Jan-10 10:58N 49°26' W 124°04'5 9.6
2018-Jan-10 10:29N 49°23' W 123°59'5 9.9
2018-Jan-10 09:59N 49°20' W 123°53'5 9.9
2018-Jan-10 09:30N 49°17' W 123°47'5 9.7
2018-Jan-10 08:58N 49°14' W 123°41'510.0
2018-Jan-10 08:30N 49°11' W 123°35'510.0
2018-Jan-10 08:00N 49°08' W 123°29'510.3
2018-Jan-10 07:30N 49°05' W 123°23'5 9.9
2018-Jan-10 07:00N 49°02' W 123°17'510.0
2018-Jan-10 06:30N 48°59' W 123°11'510.3
2018-Jan-10 06:00N 48°55' W 123°05'510.2
2018-Jan-10 05:29N 48°52' W 122°59'510.1
2018-Jan-10 04:59N 48°49' W 122°53'510.1
2018-Jan-10 04:29N 48°46' W 122°47'5 9.7
2018-Jan-10 03:59N 48°44' W 122°40'4 8.3
2018-Jan-10 03:30N 48°42' W 122°35'5 9.3
2018-Jan-10 03:00N 48°45' W 122°31'0 0.6
2018-Jan-10 02:30N 48°45' W 122°30'  

Dump ship's entire track history